Time;durP1;ratioP1;P1;durP2;ratioP2;P2;SDS_P1;SDS_P2;PMS_P1;PMS_P2;Temp;Humidity;BMP_temperature;BMP_pressure;BME280_temperature;BME280_humidity;BME280_pressure;Samples;Min_cycle;Max_cycle;Signal;HPM_P1;HPM_P2
2022/07/28 00:00:35;;;;;;;;;4.00;3.00;;;;;22.59;44.49;101316.78;5145347;27;45468;-86
2022/07/28 00:03:01;;;;;;;;;4.00;2.75;;;;;22.57;44.62;101316.78;5143744;27;45375;-86
2022/07/28 00:05:26;;;;;;;;;3.25;3.00;;;;;22.56;44.43;101308.00;5142402;27;45642;-86
2022/07/28 00:07:52;;;;;;;;;2.50;2.50;;;;;22.52;44.67;101300.06;5144435;27;45368;-86
2022/07/28 00:10:18;;;;;;;;;3.00;2.00;;;;;22.48;44.90;101296.53;5128884;27;45233;-89
2022/07/28 00:12:43;;;;;;;;;2.00;2.00;;;;;22.48;44.71;101295.63;5145674;27;45661;-86
2022/07/28 00:15:09;;;;;;;;;4.75;3.00;;;;;22.41;44.75;101302.66;5142871;27;45463;-86
2022/07/28 00:17:35;;;;;;;;;3.00;3.00;;;;;22.40;45.03;101308.78;5149988;27;45253;-87
2022/07/28 00:20:01;;;;;;;;;3.25;3.25;;;;;22.36;45.14;101293.81;5150650;27;45167;-86
2022/07/28 00:22:27;;;;;;;;;3.75;3.00;;;;;22.36;45.01;101293.81;5146226;27;45164;-86
2022/07/28 00:24:52;;;;;;;;;4.00;4.00;;;;;22.30;45.10;101285.91;5142158;27;46485;-87
2022/07/28 00:27:18;;;;;;;;;2.00;2.00;;;;;22.22;45.67;101286.72;5143030;27;45422;-86
2022/07/28 00:29:43;;;;;;;;;2.75;2.75;;;;;22.23;45.78;101288.50;5123611;27;45337;-84
2022/07/28 00:32:09;;;;;;;;;5.25;3.75;;;;;22.23;45.79;101277.94;5142563;27;45490;-84
2022/07/28 00:34:35;;;;;;;;;4.75;3.75;;;;;22.24;45.75;101274.44;5142072;27;45992;-84
2022/07/28 00:37:00;;;;;;;;;4.25;4.25;;;;;22.22;45.56;101270.91;5141673;27;45333;-84
2022/07/28 00:39:26;;;;;;;;;5.25;4.00;;;;;22.23;45.85;101263.88;5123931;27;45332;-84
2022/07/28 00:41:52;;;;;;;;;5.50;4.00;;;;;22.22;46.00;101268.25;5124585;27;45479;-84
2022/07/28 00:44:17;;;;;;;;;4.25;4.00;;;;;22.20;45.88;101264.72;5151139;27;46674;-84
2022/07/28 00:46:43;;;;;;;;;5.75;5.00;;;;;22.20;46.22;101258.59;5150168;27;45329;-87
2022/07/28 00:49:09;;;;;;;;;5.75;5.75;;;;;22.18;46.14;101274.41;5124516;27;45301;-84
2022/07/28 00:51:35;;;;;;;;;8.00;5.25;;;;;22.17;46.29;101264.75;5142352;27;45522;-85
2022/07/28 00:54:02;;;;;;;;;5.00;4.75;;;;;22.14;46.94;101274.41;5141743;27;45938;-85
2022/07/28 00:56:28;;;;;;;;;8.00;7.25;;;;;22.11;46.28;101262.06;5141937;27;45350;-85
2022/07/28 00:58:53;;;;;;;;;5.00;5.00;;;;;22.11;46.21;101262.97;5141911;27;45337;-84
2022/07/28 01:01:20;;;;;;;;;6.00;5.75;;;;;22.07;46.30;101253.25;5142543;27;45935;-85
2022/07/28 01:03:58;;;;;;;;;6.50;6.00;;;;;22.07;46.62;101245.34;5142031;27;46596;-84
2022/07/28 01:06:54;;;;;;;;;6.75;6.00;;;;;22.06;46.63;101254.13;5141718;27;45312;-84
2022/07/28 01:09:44;;;;;;;;;7.25;6.25;;;;;22.01;47.02;101244.44;5128513;27;45360;-85
2022/07/28 01:12:48;;;;;;;;;4.00;4.00;;;;;21.97;46.85;101247.97;5150335;27;45332;-85
2022/07/28 01:15:35;;;;;;;;;6.75;4.25;;;;;21.96;47.33;101249.69;5090287;27;46500;-84
2022/07/28 01:18:07;;;;;;;;;5.75;5.00;;;;;21.95;46.89;101245.28;5141288;27;45370;-85
2022/07/28 01:20:39;;;;;;;;;4.25;4.25;;;;;21.90;47.57;101239.13;5122639;27;45486;-84
2022/07/28 01:23:33;;;;;;;;;6.75;4.75;;;;;21.89;47.52;101245.28;5141572;27;45184;-85
2022/07/28 01:26:11;;;;;;;;;4.00;2.50;;;;;21.85;47.26;101248.75;5124988;27;46240;-84
2022/07/28 01:28:59;;;;;;;;;5.00;5.00;;;;;21.81;47.37;101239.97;5139634;27;45233;-84
2022/07/28 01:31:29;;;;;;;;;3.00;3.00;;;;;21.78;47.36;101243.47;5121466;27;45376;-84
2022/07/28 01:34:04;;;;;;;;;6.00;5.00;;;;;21.78;47.76;101250.47;5128819;27;45163;-84
2022/07/28 01:36:41;;;;;;;;;3.50;3.00;;;;;21.75;47.62;101243.44;5129096;27;45542;-85
2022/07/28 01:39:08;;;;;;;;;4.00;4.00;;;;;21.75;48.31;101242.56;5128915;27;45642;-85
2022/07/28 01:41:36;;;;;;;;;2.00;2.00;;;;;21.73;47.79;101247.81;5110780;27;45361;-85
2022/07/28 01:44:07;;;;;;;;;3.50;3.00;;;;;21.67;48.14;101242.53;5128924;27;45523;-85
2022/07/28 01:46:34;;;;;;;;;3.00;3.00;;;;;21.67;48.53;101245.16;5126377;27;45321;-85
2022/07/28 01:49:01;;;;;;;;;2.25;2.25;;;;;21.64;48.06;101240.78;5147857;27;45425;-86
2022/07/28 01:51:29;;;;;;;;;2.25;2.25;;;;;21.61;48.05;101231.94;5149933;27;45364;-85
2022/07/28 01:53:58;;;;;;;;;3.00;2.00;;;;;21.62;48.56;101234.59;5149885;27;45520;-86
2022/07/28 01:56:26;;;;;;;;;2.25;2.25;;;;;21.60;48.44;101231.06;5146919;27;45466;-85
2022/07/28 01:58:54;;;;;;;;;2.75;1.00;;;;;21.68;48.29;101236.38;5142310;27;45383;-85
2022/07/28 02:01:22;;;;;;;;;3.00;1.00;;;;;21.68;48.26;101232.84;5147637;27;45238;-85
2022/07/28 02:03:50;;;;;;;;;2.00;1.25;;;;;21.64;48.60;101229.31;5152851;27;45371;-85
2022/07/28 02:06:17;;;;;;;;;0.00;0.00;;;;;21.62;48.70;101224.06;5146778;27;45323;-86
2022/07/28 02:08:45;;;;;;;;;2.00;2.00;;;;;21.59;48.42;101210.00;5142800;27;45345;-86
2022/07/28 02:13:57;;;;;;;;;2.00;2.00;;;;;21.57;48.74;101219.59;5141169;27;45226;-86
2022/07/28 02:16:26;;;;;;;;;1.50;1.50;;;;;21.56;48.92;101218.69;5123446;27;47282;-85
2022/07/28 02:18:56;;;;;;;;;3.00;3.00;;;;;21.56;48.81;101223.97;5144450;27;45337;-86
2022/07/28 02:21:24;;;;;;;;;1.00;1.00;;;;;21.55;48.61;101216.94;5130993;27;45233;-84
2022/07/28 02:23:52;;;;;;;;;3.75;2.00;;;;;21.52;48.60;101214.31;5154869;27;45390;-85
2022/07/28 02:26:25;;;;;;;;;1.25;1.25;;;;;21.48;49.00;101199.34;5139689;27;45317;-84
2022/07/28 02:28:56;;;;;;;;;1.75;1.75;;;;;21.54;49.29;101212.56;5135467;27;45466;-86
2022/07/28 02:31:36;;;;;;;;;2.75;2.00;;;;;21.57;49.35;101204.66;5148717;27;45293;-85
2022/07/28 02:34:04;;;;;;;;;3.25;2.00;;;;;21.57;49.18;101204.66;5142797;27;45394;-86
2022/07/28 02:36:38;;;;;;;;;2.50;2.50;;;;;21.55;49.35;101200.25;5140446;27;45398;-86
2022/07/28 02:39:20;;;;;;;;;2.00;2.00;;;;;21.53;48.96;101194.09;5140090;27;45325;-85
2022/07/28 02:41:52;;;;;;;;;2.00;2.00;;;;;21.54;49.03;101204.66;5121901;27;45367;-85
2022/07/28 02:44:25;;;;;;;;;4.75;2.75;;;;;21.48;49.51;101201.97;5140904;27;45311;-85
2022/07/28 02:46:53;;;;;;;;;2.00;2.00;;;;;21.43;49.56;101193.19;5139854;27;46078;-85
2022/07/28 02:49:31;;;;;;;;;2.50;2.00;;;;;21.41;49.49;101189.66;5140215;27;45466;-86
2022/07/28 02:51:59;;;;;;;;;2.25;2.25;;;;;21.38;50.01;101179.97;5140191;27;45471;-85
2022/07/28 02:54:27;;;;;;;;;4.75;2.50;;;;;21.40;50.14;101185.25;5146316;27;45225;-85
2022/07/28 02:56:56;;;;;;;;;3.50;3.00;;;;;21.42;49.75;101192.28;5139845;27;45443;-85
2022/07/28 02:59:24;;;;;;;;;4.00;3.00;;;;;21.37;50.01;101188.75;5120333;27;45775;-85
2022/07/28 03:01:51;;;;;;;;;2.00;2.00;;;;;21.38;49.95;101198.41;5119106;27;45307;-85
2022/07/28 03:04:55;;;;;;;;;1.25;0.00;;;;;21.36;49.77;101201.91;5119584;27;45567;-85
2022/07/28 03:07:07;;;;;;;;;2.75;2.00;;;;;21.31;49.61;101197.50;5118307;27;45392;-85
2022/07/28 03:09:44;;;;;;;;;2.00;2.00;;;;;21.25;50.48;101193.94;5118759;27;45258;-85
2022/07/28 03:12:10;;;;;;;;;2.75;2.50;;;;;21.23;49.97;101188.66;5118540;27;45300;-85
2022/07/28 03:14:36;;;;;;;;;2.75;2.75;;;;;21.21;50.30;101189.50;5100797;27;45254;-85
2022/07/28 03:17:03;;;;;;;;;2.00;2.00;;;;;21.20;50.61;101191.28;5137694;27;46277;-85
2022/07/28 03:19:28;;;;;;;;;1.00;1.00;;;;;21.17;50.76;101194.75;5140954;27;46031;-85
2022/07/28 03:21:54;;;;;;;;;2.75;1.25;;;;;21.15;50.42;101198.25;5148549;27;45217;-85
2022/07/28 03:24:23;;;;;;;;;2.00;2.00;;;;;21.13;50.85;101197.34;5146597;27;45469;-85
2022/07/28 03:27:16;;;;;;;;;1.25;1.25;;;;;21.10;51.20;101206.13;5140752;27;45298;-85
2022/07/28 03:29:48;;;;;;;;;0.75;0.75;;;;;21.13;51.47;101194.72;5120594;27;45415;-85
2022/07/28 03:32:18;;;;;;;;;2.25;2.25;;;;;21.14;50.81;101189.47;5141194;27;45341;-85
2022/07/28 03:34:44;;;;;;;;;2.00;2.00;;;;;21.17;51.26;101191.25;5144502;27;45549;-85
2022/07/28 03:37:13;;;;;;;;;1.75;1.75;;;;;21.15;51.53;101187.72;5142097;27;46210;-85
2022/07/28 03:39:46;;;;;;;;;2.50;1.00;;;;;21.16;51.36;101181.59;5125743;27;45402;-85
2022/07/28 03:42:19;;;;;;;;;3.00;2.00;;;;;21.19;51.43;101190.38;5125101;27;45279;-85
2022/07/28 03:44:46;;;;;;;;;2.00;2.00;;;;;21.16;51.52;101182.47;5142844;27;45253;-85
2022/07/28 03:47:13;;;;;;;;;3.75;2.00;;;;;21.18;51.32;101180.72;5145545;27;45265;-86
2022/07/28 03:49:38;;;;;;;;;1.25;1.25;;;;;21.17;51.70;101184.22;5147271;27;45342;-85
2022/07/28 03:52:04;;;;;;;;;3.25;1.75;;;;;21.18;51.38;101180.72;5145626;27;45394;-85
2022/07/28 03:54:30;;;;;;;;;2.00;2.00;;;;;21.21;51.35;101186.88;5125857;27;45329;-86
2022/07/28 03:56:56;;;;;;;;;2.00;2.00;;;;;21.18;50.83;101187.75;5134155;27;46140;-86
2022/07/28 03:59:22;;;;;;;;;2.00;2.00;;;;;21.15;51.26;101188.63;5119909;27;45611;-85
2022/07/28 04:01:48;;;;;;;;;2.75;1.50;;;;;21.12;51.39;101188.59;5118599;27;45400;-86
2022/07/28 04:04:13;;;;;;;;;3.50;2.00;;;;;21.13;51.17;101195.63;5120095;27;45339;-86
2022/07/28 04:06:39;;;;;;;;;2.00;2.00;;;;;21.15;51.42;101192.97;5119716;27;46128;-84
2022/07/28 04:09:05;;;;;;;;;1.00;1.00;;;;;21.15;51.67;101187.72;5126344;27;45249;-84
2022/07/28 04:11:30;;;;;;;;;1.25;1.25;;;;;21.12;52.04;101187.69;5127299;27;45348;-83
2022/07/28 04:13:56;;;;;;;;;4.00;2.00;;;;;21.12;51.33;101191.22;5147757;27;45156;-84
2022/07/28 04:16:22;;;;;;;;;2.00;2.00;;;;;21.12;51.94;101187.69;5124684;27;47546;-84
2022/07/28 04:18:48;;;;;;;;;1.00;1.00;;;;;21.09;51.99;101190.31;5139890;27;45321;-85
2022/07/28 04:21:14;;;;;;;;;3.00;3.00;;;;;21.11;51.51;101189.47;5140278;27;46036;-84
2022/07/28 04:23:39;;;;;;;;;3.75;2.00;;;;;21.08;51.96;101193.81;5142223;27;45879;-85
2022/07/28 04:26:05;;;;;;;;;3.00;1.75;;;;;21.09;51.93;101185.91;5139407;27;45366;-84
2022/07/28 04:28:31;;;;;;;;;3.75;2.25;;;;;21.05;52.09;101181.53;5138622;27;45325;-83
2022/07/28 04:30:56;;;;;;;;;2.00;2.00;;;;;21.07;51.99;101179.75;5138760;27;45380;-82
2022/07/28 04:33:23;;;;;;;;;3.25;2.00;;;;;21.09;51.94;101179.78;5121403;27;45482;-83
2022/07/28 04:35:51;;;;;;;;;2.00;1.25;;;;;21.05;52.08;101178.91;5143804;27;45461;-82
2022/07/28 04:38:18;;;;;;;;;2.00;2.00;;;;;21.05;52.20;101178.00;5146623;27;45241;-83
2022/07/28 04:40:46;;;;;;;;;1.00;1.00;;;;;21.11;52.46;101183.31;5127996;27;45290;-81
2022/07/28 04:43:12;;;;;;;;;2.00;2.00;;;;;21.09;51.84;101179.78;5146815;27;45286;-82
2022/07/28 04:45:37;;;;;;;;;4.50;2.25;;;;;21.12;52.14;101178.06;5146351;27;45433;-82
2022/07/28 04:48:03;;;;;;;;;2.00;2.00;;;;;21.14;52.39;101172.78;5146118;27;45361;-82
2022/07/28 04:50:29;;;;;;;;;1.00;1.00;;;;;21.19;51.91;101171.09;5126224;27;45306;-81
2022/07/28 04:52:54;;;;;;;;;2.50;2.00;;;;;21.19;51.76;101177.22;5139176;27;45425;-81
2022/07/28 04:55:20;;;;;;;;;3.00;3.00;;;;;21.22;51.83;101173.72;5133016;27;45258;-81
2022/07/28 04:57:46;;;;;;;;;5.75;3.00;;;;;21.23;51.95;101175.47;5124537;27;45169;-85
2022/07/28 05:00:13;;;;;;;;;3.00;3.00;;;;;21.28;51.37;101175.50;5122844;27;45189;-84
2022/07/28 05:02:40;;;;;;;;;4.00;3.00;;;;;21.30;51.54;101177.31;5123941;27;45447;-85
2022/07/28 05:05:06;;;;;;;;;3.00;3.00;;;;;21.30;51.31;101171.13;5124808;27;45360;-86
2022/07/28 05:07:31;;;;;;;;;3.00;2.00;;;;;21.33;51.07;101179.06;5130488;27;45329;-85
2022/07/28 05:09:57;;;;;;;;;4.50;3.25;;;;;21.34;50.83;101178.19;5139142;27;45341;-85
2022/07/28 05:12:23;;;;;;;;;2.25;2.00;;;;;21.36;51.23;101176.47;5137041;27;45267;-84
2022/07/28 05:14:48;;;;;;;;;4.25;2.50;;;;;21.37;51.13;101178.22;5121234;27;45334;-83
2022/07/28 05:17:14;;;;;;;;;2.00;2.00;;;;;21.40;51.66;101179.97;5126291;27;45384;-82
2022/07/28 05:19:40;;;;;;;;;5.25;1.50;;;;;21.38;51.67;101181.72;5113402;27;45312;-84
2022/07/28 05:22:05;;;;;;;;;3.50;3.00;;;;;21.41;51.49;101185.25;5132030;27;45341;-84
2022/07/28 05:24:31;;;;;;;;;2.75;2.00;;;;;21.40;51.69;101179.97;5128568;27;45289;-83
2022/07/28 05:26:57;;;;;;;;;2.25;2.25;;;;;21.41;51.63;101187.03;5112418;27;45238;-80
2022/07/28 05:29:23;;;;;;;;;5.00;3.50;;;;;21.34;51.10;101186.09;5131880;27;45244;-81
2022/07/28 05:31:49;;;;;;;;;2.50;2.00;;;;;21.32;51.38;101174.66;5131789;27;45667;-75
2022/07/28 05:34:15;;;;;;;;;3.00;2.00;;;;;21.34;51.53;101180.81;5141632;27;45990;-83
2022/07/28 05:36:40;;;;;;;;;2.75;2.75;;;;;21.36;51.71;101175.56;5138330;27;45274;-81
2022/07/28 05:39:06;;;;;;;;;5.00;3.00;;;;;21.34;51.64;101186.97;5138203;27;45394;-83
2022/07/28 05:41:32;;;;;;;;;2.00;2.00;;;;;21.32;51.61;101178.19;5127557;27;45459;-85
2022/07/28 05:43:59;;;;;;;;;5.00;4.00;;;;;21.32;51.68;101177.31;5119680;27;45940;-83
2022/07/28 05:46:26;;;;;;;;;1.00;1.00;;;;;21.34;51.54;101183.47;5129739;27;45447;-83
2022/07/28 05:48:51;;;;;;;;;2.75;2.25;;;;;21.34;51.87;101178.19;5126355;27;45322;-83
2022/07/28 05:51:17;;;;;;;;;2.25;2.25;;;;;21.26;52.22;101172.00;5130925;27;45479;-82
2022/07/28 05:53:43;;;;;;;;;3.00;3.00;;;;;21.26;51.91;101178.13;5129571;27;46316;-82
2022/07/28 05:56:08;;;;;;;;;4.50;3.00;;;;;21.26;52.08;101166.75;5124801;27;45614;-83
2022/07/28 05:58:34;;;;;;;;;3.25;3.25;;;;;21.31;52.42;101167.63;5132320;27;45388;-81
2022/07/28 06:01:00;;;;;;;;;5.00;3.50;;;;;21.34;52.16;101173.78;5146891;27;45765;-82
2022/07/28 06:03:29;;;;;;;;;3.25;3.25;;;;;21.37;52.68;101169.41;5145257;27;45532;-83
2022/07/28 06:05:55;;;;;;;;;2.25;2.25;;;;;21.38;52.21;101171.19;5142263;27;45597;-82
2022/07/28 06:08:23;;;;;;;;;4.25;3.00;;;;;21.38;52.48;101168.56;5124252;27;45408;-83
2022/07/28 06:11:01;;;;;;;;;4.50;3.50;;;;;21.41;52.11;101169.44;5112525;27;45534;-84
2022/07/28 06:13:28;;;;;;;;;2.00;0.25;;;;;21.41;52.19;101173.84;5142863;27;45376;-84
2022/07/28 06:15:54;;;;;;;;;2.00;2.00;;;;;21.46;51.55;101183.53;5146749;27;45214;-83
2022/07/28 06:18:20;;;;;;;;;4.50;3.50;;;;;21.52;52.03;101180.06;5130421;27;45388;-82
2022/07/28 06:20:47;;;;;;;;;3.75;3.00;;;;;21.55;51.72;101185.31;5145683;27;45568;-82
2022/07/28 06:23:16;;;;;;;;;2.50;2.25;;;;;21.60;51.41;101186.28;5142822;27;45256;-83
2022/07/28 06:25:42;;;;;;;;;5.25;3.75;;;;;21.60;51.44;101181.00;5148063;27;45462;-81
2022/07/28 06:28:08;;;;;;;;;3.00;2.75;;;;;21.58;51.55;101173.94;5147574;27;45494;-85
2022/07/28 06:30:33;;;;;;;;;4.00;2.00;;;;;21.67;51.80;101181.03;5152977;27;45474;-84
2022/07/28 06:32:59;;;;;;;;;3.25;2.75;;;;;21.71;51.61;101188.94;5122232;27;47283;-86
2022/07/28 06:35:26;;;;;;;;;3.75;3.00;;;;;21.69;51.06;101176.66;5140595;27;45233;-82
2022/07/28 06:37:52;;;;;;;;;3.00;3.00;;;;;21.75;51.43;101184.59;5140596;27;45222;-86
2022/07/28 06:40:19;;;;;;;;;3.00;3.00;;;;;21.75;51.25;101187.22;5140484;27;45506;-86
2022/07/28 06:42:46;;;;;;;;;4.00;3.25;;;;;21.76;50.98;101191.59;5134294;27;46909;-86
2022/07/28 06:45:13;;;;;;;;;3.00;3.00;;;;;21.75;51.12;101190.72;5131006;27;45441;-84
2022/07/28 06:47:38;;;;;;;;;3.00;3.00;;;;;21.73;51.79;101187.22;5143256;27;45165;-86
2022/07/28 06:50:05;;;;;;;;;3.75;3.75;;;;;21.77;51.59;101185.47;5143489;27;45566;-82
2022/07/28 06:52:33;;;;;;;;;4.00;3.00;;;;;21.80;51.13;101186.38;5147293;27;45335;-84
2022/07/28 06:54:59;;;;;;;;;3.75;3.75;;;;;21.82;51.17;101186.38;5131707;27;45484;-81
2022/07/28 06:57:26;;;;;;;;;3.00;3.00;;;;;21.87;51.01;101181.13;5134875;27;45411;-91
2022/07/28 06:59:52;;;;;;;;;3.25;3.25;;;;;21.96;50.80;101181.16;5141415;27;45289;-90
2022/07/28 07:02:18;;;;;;;;;2.75;2.75;;;;;22.02;50.57;101182.94;5129786;27;46732;-90
2022/07/28 07:04:44;;;;;;;;;4.75;4.75;;;;;22.06;50.68;101177.66;5134097;27;45350;-85
2022/07/28 07:07:10;;;;;;;;;5.75;4.50;;;;;22.09;50.54;101180.31;5138508;27;45238;-84
2022/07/28 07:09:36;;;;;;;;;2.25;2.25;;;;;22.10;51.12;101183.81;5130320;27;45525;-88
2022/07/28 07:12:06;;;;;;;;;4.25;3.00;;;;;22.17;50.50;101184.72;5115073;27;46584;-92
2022/07/28 07:14:32;;;;;;;;;3.00;3.00;;;;;22.21;50.67;101200.56;5150429;27;45400;-88
2022/07/28 07:16:57;;;;;;;;;3.25;3.00;;;;;22.13;50.60;101172.44;5159633;27;44749;-87
2022/07/28 07:19:23;;;;;;;;;4.00;3.50;;;;;22.29;50.40;101199.72;5142402;27;44789;-86
2022/07/28 07:21:49;;;;;;;;;5.25;3.00;;;;;22.32;50.18;101194.44;5159688;27;45239;-90
2022/07/28 07:24:15;;;;;;;;;3.75;3.00;;;;;22.29;49.69;101179.47;5157432;27;45071;-87
2022/07/28 07:26:47;;;;;;;;;3.00;3.00;;;;;22.36;50.19;101188.28;5154831;27;45277;-87
2022/07/28 07:29:12;;;;;;;;;5.00;3.75;;;;;22.41;49.88;101182.19;5153738;27;45395;-88
2022/07/28 07:31:39;;;;;;;;;5.50;3.75;;;;;22.51;49.61;101190.09;5149287;27;45968;-87
2022/07/28 07:34:05;;;;;;;;;4.00;4.00;;;;;22.61;49.88;101199.78;5146495;27;45205;-88
2022/07/28 07:36:32;;;;;;;;;6.00;3.25;;;;;22.65;49.33;101190.13;5109602;27;45330;-91
2022/07/28 07:38:58;;;;;;;;;3.75;3.25;;;;;22.69;49.57;101187.47;5120318;27;45539;-90
2022/07/28 07:41:24;;;;;;;;;4.00;3.25;;;;;22.69;49.27;101179.56;5128542;27;46762;-89
2022/07/28 07:43:49;;;;;;;;;4.00;4.00;;;;;22.79;49.56;101192.75;5118278;27;45520;-90
2022/07/28 07:46:16;;;;;;;;;6.00;5.00;;;;;22.84;49.04;101194.50;5111348;27;45380;-91
2022/07/28 07:48:41;;;;;;;;;4.75;4.50;;;;;22.82;48.41;101188.38;5126898;27;45230;-91
2022/07/28 07:51:08;;;;;;;;;4.00;4.00;;;;;22.85;49.22;101183.06;5104046;27;47915;-89
2022/07/28 07:53:33;;;;;;;;;5.00;4.25;;;;;22.93;48.35;101195.41;5102709;27;45406;-91
2022/07/28 07:55:59;;;;;;;;;6.25;4.50;;;;;22.93;48.52;101176.94;5126539;27;45313;-90
2022/07/28 07:58:26;;;;;;;;;2.25;2.25;;;;;23.03;48.48;101182.19;5125593;27;45211;-91
2022/07/28 08:00:52;;;;;;;;;3.25;3.25;;;;;23.02;47.78;101169.88;5108105;27;47038;-93
2022/07/28 08:03:18;;;;;;;;;6.50;5.00;;;;;23.01;47.48;101167.25;5105770;27;45420;-87
2022/07/28 08:05:44;;;;;;;;;3.50;3.50;;;;;23.04;47.99;101181.31;5126022;27;45411;-89
2022/07/28 08:08:10;;;;;;;;;5.00;5.00;;;;;22.95;47.92;101160.19;5116325;27;45410;-91
2022/07/28 08:10:37;;;;;;;;;5.00;5.00;;;;;22.98;48.44;101169.88;5132968;27;46849;-93
2022/07/28 08:13:05;;;;;;;;;4.00;4.00;;;;;22.93;48.46;101174.28;5115143;27;45400;-92
2022/07/28 08:15:32;;;;;;;;;4.50;3.50;;;;;22.95;48.20;101178.69;5113797;27;45230;-91
2022/07/28 08:17:58;;;;;;;;;3.00;2.75;;;;;22.90;48.86;101183.06;5115608;27;45013;-91
2022/07/28 08:20:24;;;;;;;;;3.50;3.50;;;;;22.86;49.88;101173.41;5118598;27;46799;-90
2022/07/28 08:22:51;;;;;;;;;4.50;4.50;;;;;22.87;49.49;101165.47;5118023;27;45321;-91
2022/07/28 08:25:17;;;;;;;;;3.00;3.00;;;;;22.96;49.21;101164.59;5108727;27;45420;-92
2022/07/28 08:27:43;;;;;;;;;7.00;5.00;;;;;22.99;49.17;101166.34;5105218;27;45313;-90
2022/07/28 08:30:10;;;;;;;;;6.00;5.00;;;;;22.97;49.24;101160.19;5124324;27;46282;-90
2022/07/28 08:32:36;;;;;;;;;4.00;4.00;;;;;22.97;49.81;101165.47;5109611;27;45412;-91
2022/07/28 08:35:04;;;;;;;;;11.50;5.25;;;;;22.99;49.70;101166.34;5110024;27;45273;-90
2022/07/28 08:37:29;;;;;;;;;5.00;5.00;;;;;23.03;48.33;101168.13;5128812;27;45300;-91
2022/07/28 08:39:55;;;;;;;;;6.00;5.50;;;;;22.96;47.87;101153.16;5112503;27;46718;-90
2022/07/28 08:42:33;;;;;;;;;6.75;4.25;;;;;22.99;47.81;101159.34;5131811;27;45297;-91
2022/07/28 08:45:05;;;;;;;;;5.25;5.00;;;;;23.10;47.58;101175.16;5108863;27;45356;-92
2022/07/28 08:47:33;;;;;;;;;7.00;6.00;;;;;23.07;47.47;101163.72;5122031;27;45606;-93
2022/07/28 08:50:01;;;;;;;;;5.25;4.00;;;;;23.14;47.72;101166.34;5128972;27;47028;-93
2022/07/28 08:52:31;;;;;;;;;8.25;5.00;;;;;23.18;47.60;101162.78;5112368;27;45415;-93
2022/07/28 08:55:01;;;;;;;;;5.25;4.00;;;;;23.25;47.72;101168.13;5152676;27;45259;-94
2022/07/28 08:57:32;;;;;;;;;6.00;4.25;;;;;23.28;47.41;101170.72;5129903;27;45268;-91
2022/07/28 08:59:58;;;;;;;;;7.00;7.00;;;;;23.23;48.25;101149.63;5128122;27;46850;-92
2022/07/28 09:02:25;;;;;;;;;7.25;6.00;;;;;23.32;48.31;101159.28;5131933;27;45290;-92
2022/07/28 09:04:54;;;;;;;;;6.00;4.25;;;;;23.35;47.59;101161.94;5131774;27;44743;-91
2022/07/28 09:07:22;;;;;;;;;6.00;4.00;;;;;23.32;47.63;101160.16;5157031;27;45280;-91
2022/07/28 09:09:49;;;;;;;;;5.00;4.25;;;;;23.28;47.03;101162.81;5135112;27;46534;-91
2022/07/28 09:12:15;;;;;;;;;5.00;4.75;;;;;23.26;48.03;101154.91;5131888;27;45311;-91
2022/07/28 09:14:43;;;;;;;;;7.25;5.00;;;;;23.25;48.57;101144.34;5130466;27;45352;-91
2022/07/28 09:17:09;;;;;;;;;9.75;8.00;;;;;23.37;47.96;101160.16;5148035;27;45348;-90
2022/07/28 09:19:37;;;;;;;;;3.50;3.50;;;;;23.41;47.66;101153.09;5133074;27;47918;-91
2022/07/28 09:22:04;;;;;;;;;6.00;5.00;;;;;23.36;48.50;101149.59;5128562;27;45807;-91
2022/07/28 09:24:38;;;;;;;;;5.25;5.25;;;;;23.50;48.94;101163.63;5125957;27;45241;-91
2022/07/28 09:27:10;;;;;;;;;7.50;5.00;;;;;23.44;47.77;101142.50;5149048;27;45339;-91
2022/07/28 09:29:37;;;;;;;;;6.50;5.00;;;;;23.55;47.46;101145.13;5145083;27;45499;-91
2022/07/28 09:32:04;;;;;;;;;7.50;5.00;;;;;23.69;47.52;101158.28;5147889;27;45351;-91
2022/07/28 09:34:49;;;;;;;;;6.25;4.75;;;;;23.66;46.48;101145.97;5152554;27;45297;-90
2022/07/28 09:37:23;;;;;;;;;5.50;4.00;;;;;23.64;46.32;101130.13;5129519;27;45266;-90
2022/07/28 09:39:51;;;;;;;;;4.00;4.00;;;;;23.81;45.58;101148.50;5130658;27;47071;-90
2022/07/28 09:42:18;;;;;;;;;4.25;3.75;;;;;23.79;45.48;101141.50;5127499;27;45270;-90
2022/07/28 09:44:44;;;;;;;;;5.50;5.50;;;;;23.84;45.23;101130.88;5147742;27;45468;-91
2022/07/28 09:47:22;;;;;;;;;5.25;3.25;;;;;23.98;44.36;101152.88;5129270;27;45542;-92
2022/07/28 09:49:48;;;;;;;;;3.00;2.50;;;;;23.98;44.68;101133.47;5131642;27;47992;-91
2022/07/28 09:52:28;;;;;;;;;5.00;3.75;;;;;24.13;44.08;101143.13;5151097;27;45218;-90
2022/07/28 09:55:14;;;;;;;;;3.00;2.50;;;;;24.23;42.84;101143.03;5157053;27;45330;-92
2022/07/28 09:57:40;;;;;;;;;3.75;2.50;;;;;24.25;43.88;101129.78;5132543;27;45602;-91
2022/07/28 10:00:10;;;;;;;;;6.50;3.25;;;;;24.33;44.07;101122.69;5132468;27;47681;-91
2022/07/28 10:02:36;;;;;;;;;4.00;4.00;;;;;24.42;43.72;101134.94;5151637;27;45049;-92
2022/07/28 10:05:03;;;;;;;;;5.00;3.75;;;;;24.52;43.89;101135.78;5151299;27;45278;-92
2022/07/28 10:07:30;;;;;;;;;4.00;3.25;;;;;24.55;43.37;101123.38;5106441;27;45336;-83
2022/07/28 10:10:05;;;;;;;;;4.50;4.00;;;;;24.72;43.16;101133.00;5123319;27;46054;-91
2022/07/28 10:12:35;;;;;;;;;4.75;3.00;;;;;24.80;43.55;101130.25;5107532;27;45336;-84
2022/07/28 10:18:01;;;;;;;;;4.25;4.25;;;;;24.94;42.72;101130.16;5134627;27;44772;-85
2022/07/28 10:20:28;;;;;;;;;3.50;3.50;;;;;25.01;42.62;101126.53;5107049;27;46742;-87
2022/07/28 10:23:01;;;;;;;;;3.25;3.25;;;;;25.12;43.04;101131.69;5131304;27;45283;-87
2022/07/28 10:25:30;;;;;;;;;4.75;4.00;;;;;25.17;42.58;101124.59;5133942;27;45575;-87
2022/07/28 10:27:58;;;;;;;;;4.00;3.00;;;;;25.26;41.72;101127.13;5134414;27;45298;-86
2022/07/28 10:30:24;;;;;;;;;5.00;5.00;;;;;25.37;40.61;101118.19;5128243;27;45348;-86
2022/07/28 10:32:53;;;;;;;;;3.00;3.00;;;;;25.41;40.30;101117.31;5127977;27;45730;-87
2022/07/28 10:35:19;;;;;;;;;2.00;2.00;;;;;25.50;39.21;101126.00;5109669;27;45450;-86
2022/07/28 10:38:02;;;;;;;;;3.00;3.00;;;;;25.48;39.21;101111.88;5127755;27;45460;-85
2022/07/28 10:40:35;;;;;;;;;4.00;3.00;;;;;25.45;39.54;101119.00;5124937;27;45339;-85
2022/07/28 10:43:02;;;;;;;;;5.00;3.50;;;;;25.43;39.97;101116.38;5122508;27;45466;-86
2022/07/28 10:45:28;;;;;;;;;4.00;4.00;;;;;25.41;40.31;101115.50;5122695;27;45442;-86
2022/07/28 10:47:54;;;;;;;;;4.25;3.00;;;;;25.47;40.12;101123.41;5126740;27;45334;-86
2022/07/28 10:50:20;;;;;;;;;4.00;3.00;;;;;25.53;40.37;101125.09;5126162;27;45337;-87
2022/07/28 10:52:47;;;;;;;;;5.00;4.00;;;;;25.54;40.10;101108.28;5128374;27;45225;-88
2022/07/28 10:55:40;;;;;;;;;5.50;4.50;;;;;25.64;40.69;101106.38;5124449;27;45235;-86
2022/07/28 10:58:16;;;;;;;;;4.25;4.25;;;;;25.70;42.58;101113.38;5114176;27;45277;-87
2022/07/28 11:00:52;;;;;;;;;3.00;3.00;;;;;25.72;39.81;101109.81;5121739;27;47257;-86
2022/07/28 11:03:44;;;;;;;;;3.00;3.00;;;;;25.78;39.79;101112.41;5143478;27;45246;-86
2022/07/28 11:06:26;;;;;;;;;4.25;3.00;;;;;25.84;40.91;101108.78;5126162;27;45353;-86
2022/07/28 11:08:53;;;;;;;;;4.00;4.00;;;;;25.91;39.50;101109.56;5115010;27;45397;-88
2022/07/28 11:11:49;;;;;;;;;2.50;2.50;;;;;26.00;39.40;101108.53;5136307;27;45741;-87
2022/07/28 11:14:42;;;;;;;;;4.00;3.00;;;;;26.03;38.74;101105.84;5118540;27;45829;-86
2022/07/28 11:17:09;;;;;;;;;4.00;3.00;;;;;26.11;38.45;101107.53;5119809;27;45479;-83
2022/07/28 11:19:44;;;;;;;;;2.25;2.25;;;;;26.28;38.37;101106.38;5112035;27;45369;-90
2022/07/28 11:22:18;;;;;;;;;3.00;3.00;;;;;26.42;38.47;101107.03;5131986;27;46224;-93
2022/07/28 11:24:56;;;;;;;;;1.00;1.00;;;;;26.54;38.20;101111.25;5131908;27;45289;-86
2022/07/28 11:27:46;;;;;;;;;4.00;3.00;;;;;26.55;37.46;101109.50;5138166;27;45473;-88
2022/07/28 11:30:57;;;;;;;;;2.75;2.75;;;;;26.66;37.42;101088.03;5125599;27;45392;-87
2022/07/28 11:33:24;;;;;;;;;3.75;3.75;;;;;26.71;37.07;101097.69;5126436;27;45445;-83
2022/07/28 11:35:54;;;;;;;;;3.00;2.25;;;;;26.79;37.08;101094.94;5149516;27;45332;-89
2022/07/28 11:38:21;;;;;;;;;3.00;3.00;;;;;26.86;37.04;101090.38;5127901;27;44703;-87